Airfield :
LOGIN :

Register | Disclaimer

   EN    FR    IT 

 










Legend :    VFR   Marginal VFR   IFR   Intensive IFR   Very Intensive IFR
Visi :
Ceiling :
>= 8 km
>= 3000ft
5 to 8 km
1000 to 3000 ft
1500m to 5 km
500 to 1000 ft
800 to 1500m
200 to 500 ft
< 800m
< 200 ft
Symbols :   Thunderstorms  Fog  Heavy snow  Heavy precipitations  Wind > 20 kt
SIGMETs :     Misc.  Thunderstorms  Icing  Turbulence  Mountain Waves  Volcanic Ashes







- Airport Elevation : 20 ft


EBFN - Koksijde

CURRENT METAR :
  • 192016Z AUTO 02009KT 7000 NCD 12/07 Q1028 WHT

EXPIRED METARs :
  • 192004Z AUTO 02009KT 7000 NCD 12/07 Q1028 WHT
  • 191955Z AUTO 03009KT 8000 NCD 12/07 Q1028 BLU
  • 191945Z AUTO 02010KT 7000 NCD 12/07 Q1028 WHT
  • 191925Z AUTO 02009KT 8000 NCD 13/07 Q1028 BLU
  • 191855Z AUTO 03009KT 9000 NCD 14/07 Q1028 BLU
  • 191825Z AUTO 03010KT 9000 NCD 15/07 Q1028 BLU
  • 191755Z AUTO 04011KT 9999 NCD 16/07 Q1027 BLU
  • 191725Z AUTO 03012KT 9999 NCD 16/07 Q1027 BLU

TAF TAF EBFN
Valid from the 19 at 19:00 until the 20 at 07:00 UTC


191541Z 1919/2007 04010KT 8000 FEW035
PROB30
TEMPO 2002/2006 5000 BR
BECMG 2004/2006 07006KT
No reported NOTAMs for that airfield.



MET'MAP, your aeronautical weather chart ! - Copyright ORBIFLY December 2007 - Disclaimer

ORBIFLY MET'MAP TEAM :

Programming & Development : Alexandra Zaïnal
Concept & Development : Baudouin d'Aumeries
Co-Development & Prog : Marc-Olivier Méhu
Technical & hardware support : Manuel Goepfert

Contact : metmap@orbifly.com




SOURCES & CREDITS :

   NOAA